sensor_id;sensor_type;location;lat;lon;timestamp;pressure;altitude;pressure_sealevel;temperature;humidity
40574;BME280;26283;49.020;8.644;2022-12-18T00:00:42;100433.34;;;2.84;64.15
40574;BME280;26283;49.020;8.644;2022-12-18T00:03:08;100429.00;;;2.83;64.13
40574;BME280;26283;49.020;8.644;2022-12-18T00:05:33;100431.66;;;2.83;64.12
40574;BME280;26283;49.020;8.644;2022-12-18T00:07:58;100436.13;;;2.82;64.12
40574;BME280;26283;49.020;8.644;2022-12-18T00:10:24;100437.81;;;2.83;64.11
40574;BME280;26283;49.020;8.644;2022-12-18T00:12:49;100443.16;;;2.83;64.09
40574;BME280;26283;49.020;8.644;2022-12-18T00:15:15;100447.63;;;2.83;64.10
40574;BME280;26283;49.020;8.644;2022-12-18T00:17:40;100454.63;;;2.84;64.10
40574;BME280;26283;49.020;8.644;2022-12-18T00:20:06;100444.97;;;2.83;64.09
40574;BME280;26283;49.020;8.644;2022-12-18T00:22:32;100439.81;;;2.81;64.10
40574;BME280;26283;49.020;8.644;2022-12-18T00:24:57;100432.63;;;2.82;64.11
40574;BME280;26283;49.020;8.644;2022-12-18T00:27:23;100445.12;;;2.81;64.11
40574;BME280;26283;49.020;8.644;2022-12-18T00:29:48;100447.09;;;2.79;64.11
40574;BME280;26283;49.020;8.644;2022-12-18T00:32:14;100447.09;;;2.79;64.13
40574;BME280;26283;49.020;8.644;2022-12-18T00:34:39;100441.91;;;2.78;64.15
40574;BME280;26283;49.020;8.644;2022-12-18T00:37:05;100444.56;;;2.78;64.14
40574;BME280;26283;49.020;8.644;2022-12-18T00:39:30;100450.75;;;2.78;64.15
40574;BME280;26283;49.020;8.644;2022-12-18T00:41:55;100454.25;;;2.79;64.16
40574;BME280;26283;49.020;8.644;2022-12-18T00:44:50;100463.22;;;2.78;64.14
40574;BME280;26283;49.020;8.644;2022-12-18T00:47:15;100463.22;;;2.78;64.12
40574;BME280;26283;49.020;8.644;2022-12-18T00:49:40;100472.16;;;2.77;64.15
40574;BME280;26283;49.020;8.644;2022-12-18T00:52:06;100457.19;;;2.75;64.16
40574;BME280;26283;49.020;8.644;2022-12-18T00:54:31;100453.66;;;2.75;64.17
40574;BME280;26283;49.020;8.644;2022-12-18T00:56:56;100446.66;;;2.74;64.18
40574;BME280;26283;49.020;8.644;2022-12-18T00:59:22;100442.19;;;2.74;64.16
40574;BME280;26283;49.020;8.644;2022-12-18T01:01:47;100450.16;;;2.74;64.19
40574;BME280;26283;49.020;8.644;2022-12-18T01:04:13;100452.84;;;2.74;64.17
40574;BME280;26283;49.020;8.644;2022-12-18T01:06:38;100464.47;;;2.73;64.18
40574;BME280;26283;49.020;8.644;2022-12-18T01:09:04;100455.62;;;2.73;64.18
40574;BME280;26283;49.020;8.644;2022-12-18T01:11:29;100453.09;;;2.71;64.17
40574;BME280;26283;49.020;8.644;2022-12-18T01:13:55;100453.09;;;2.71;64.18
40574;BME280;26283;49.020;8.644;2022-12-18T01:16:20;100441.47;;;2.72;64.20
40574;BME280;26283;49.020;8.644;2022-12-18T01:18:46;100438.13;;;2.70;64.19
40574;BME280;26283;49.020;8.644;2022-12-18T01:21:15;100455.78;;;2.71;64.19
40574;BME280;26283;49.020;8.644;2022-12-18T01:23:40;100444.28;;;2.71;64.19
40574;BME280;26283;49.020;8.644;2022-12-18T01:26:08;100436.44;;;2.69;64.20
40574;BME280;26283;49.020;8.644;2022-12-18T01:28:33;100449.75;;;2.69;64.22
40574;BME280;26283;49.020;8.644;2022-12-18T01:31:10;100456.03;;;2.68;64.20
40574;BME280;26283;49.020;8.644;2022-12-18T01:33:35;100472.84;;;2.69;64.22
40574;BME280;26283;49.020;8.644;2022-12-18T01:36:01;100460.53;;;2.68;64.24
40574;BME280;26283;49.020;8.644;2022-12-18T01:38:28;100457.84;;;2.68;64.23
40574;BME280;26283;49.020;8.644;2022-12-18T01:40:58;100459.69;;;2.67;64.25
40574;BME280;26283;49.020;8.644;2022-12-18T01:43:41;100437.53;;;2.67;64.24
40574;BME280;26283;49.020;8.644;2022-12-18T01:46:06;100440.22;;;2.67;64.24
40574;BME280;26283;49.020;8.644;2022-12-18T01:48:32;100438.53;;;2.66;64.20
40574;BME280;26283;49.020;8.644;2022-12-18T01:50:57;100450.16;;;2.65;64.21
40574;BME280;26283;49.020;8.644;2022-12-18T01:53:23;100453.78;;;2.64;64.23
40574;BME280;26283;49.020;8.644;2022-12-18T01:55:53;100470.59;;;2.64;64.24
40574;BME280;26283;49.020;8.644;2022-12-18T01:58:24;100459.12;;;2.64;64.24
40574;BME280;26283;49.020;8.644;2022-12-18T02:00:54;100469.75;;;2.64;64.23
40574;BME280;26283;49.020;8.644;2022-12-18T02:03:20;100472.56;;;2.62;64.24
40574;BME280;26283;49.020;8.644;2022-12-18T02:06:12;100468.06;;;2.63;64.26
40574;BME280;26283;49.020;8.644;2022-12-18T02:17:01;100445.25;;;2.60;64.20
40574;BME280;26283;49.020;8.644;2022-12-18T02:19:53;100459.38;;;2.61;64.22
40574;BME280;26283;49.020;8.644;2022-12-18T02:27:37;100459.56;;;2.59;64.22
40574;BME280;26283;49.020;8.644;2022-12-18T02:30:05;100452.53;;;2.58;64.25
40574;BME280;26283;49.020;8.644;2022-12-18T02:32:37;100458.00;;;2.57;64.27
40574;BME280;26283;49.020;8.644;2022-12-18T02:35:05;100458.84;;;2.57;64.29
40574;BME280;26283;49.020;8.644;2022-12-18T02:37:32;100463.31;;;2.57;64.29
40574;BME280;26283;49.020;8.644;2022-12-18T02:39:59;100466.00;;;2.57;64.29
40574;BME280;26283;49.020;8.644;2022-12-18T02:42:25;100463.31;;;2.57;64.29
40574;BME280;26283;49.020;8.644;2022-12-18T02:44:52;100457.16;;;2.56;64.29
40574;BME280;26283;49.020;8.644;2022-12-18T02:47:20;100458.00;;;2.57;64.29
40574;BME280;26283;49.020;8.644;2022-12-18T02:55:43;100456.47;;;2.54;64.26
40574;BME280;26283;49.020;8.644;2022-12-18T02:58:42;100462.75;;;2.53;64.26
40574;BME280;26283;49.020;8.644;2022-12-18T03:01:19;100468.09;;;2.53;64.27
40574;BME280;26283;49.020;8.644;2022-12-18T03:03:55;100470.03;;;2.51;64.26
40574;BME280;26283;49.020;8.644;2022-12-18T03:06:29;100473.53;;;2.52;64.28
40574;BME280;26283;49.020;8.644;2022-12-18T03:09:02;100471.84;;;2.51;64.29
40574;BME280;26283;49.020;8.644;2022-12-18T03:11:33;100473.66;;;2.50;64.29
40574;BME280;26283;49.020;8.644;2022-12-18T03:14:20;100472.00;;;2.49;64.29
40574;BME280;26283;49.020;8.644;2022-12-18T03:16:48;100466.66;;;2.49;64.31
40574;BME280;26283;49.020;8.644;2022-12-18T03:19:22;100470.16;;;2.50;64.31
40574;BME280;26283;49.020;8.644;2022-12-18T03:21:53;100466.66;;;2.49;64.30
40574;BME280;26283;49.020;8.644;2022-12-18T03:24:20;100469.31;;;2.49;64.30
40574;BME280;26283;49.020;8.644;2022-12-18T03:26:48;100465.81;;;2.49;64.31
40574;BME280;26283;49.020;8.644;2022-12-18T03:29:20;100464.13;;;2.48;64.32
40574;BME280;26283;49.020;8.644;2022-12-18T03:31:51;100462.31;;;2.48;64.32
40574;BME280;26283;49.020;8.644;2022-12-18T03:34:28;100457.13;;;2.47;64.31
40574;BME280;26283;49.020;8.644;2022-12-18T03:36:55;100465.13;;;2.47;64.32
40574;BME280;26283;49.020;8.644;2022-12-18T03:39:20;100464.13;;;2.48;64.31
40574;BME280;26283;49.020;8.644;2022-12-18T03:42:05;100470.44;;;2.47;64.33
40574;BME280;26283;49.020;8.644;2022-12-18T03:44:57;100461.63;;;2.46;64.32
40574;BME280;26283;49.020;8.644;2022-12-18T03:47:27;100448.31;;;2.46;64.27
40574;BME280;26283;49.020;8.644;2022-12-18T03:52:28;100451.09;;;2.45;64.29
40574;BME280;26283;49.020;8.644;2022-12-18T03:54:56;100452.94;;;2.44;64.33
40574;BME280;26283;49.020;8.644;2022-12-18T03:57:26;100456.56;;;2.43;64.33
40574;BME280;26283;49.020;8.644;2022-12-18T03:59:56;100454.75;;;2.44;64.36
40574;BME280;26283;49.020;8.644;2022-12-18T04:02:25;100452.94;;;2.44;64.35
40574;BME280;26283;49.020;8.644;2022-12-18T04:04:56;100446.75;;;2.44;64.35
40574;BME280;26283;49.020;8.644;2022-12-18T04:07:24;100450.25;;;2.44;64.35
40574;BME280;26283;49.020;8.644;2022-12-18T04:09:50;100440.59;;;2.43;64.32
40574;BME280;26283;49.020;8.644;2022-12-18T04:12:17;100445.09;;;2.42;64.36
40574;BME280;26283;49.020;8.644;2022-12-18T04:14:43;100439.06;;;2.40;64.36
40574;BME280;26283;49.020;8.644;2022-12-18T04:17:08;100431.06;;;2.40;64.37
40574;BME280;26283;49.020;8.644;2022-12-18T04:19:33;100434.72;;;2.39;64.37
40574;BME280;26283;49.020;8.644;2022-12-18T04:21:59;100434.56;;;2.41;64.37
40574;BME280;26283;49.020;8.644;2022-12-18T04:24:24;100436.41;;;2.40;64.34
40574;BME280;26283;49.020;8.644;2022-12-18T04:26:49;100433.72;;;2.40;64.34
40574;BME280;26283;49.020;8.644;2022-12-18T04:29:15;100436.41;;;2.40;64.34
40574;BME280;26283;49.020;8.644;2022-12-18T04:31:40;100425.75;;;2.40;64.33
40574;BME280;26283;49.020;8.644;2022-12-18T04:34:06;100436.53;;;2.39;64.33
40574;BME280;26283;49.020;8.644;2022-12-18T04:36:31;100432.03;;;2.39;64.33
40574;BME280;26283;49.020;8.644;2022-12-18T04:38:56;100428.53;;;2.39;64.35
40574;BME280;26283;49.020;8.644;2022-12-18T04:41:22;100432.22;;;2.38;64.34
40574;BME280;26283;49.020;8.644;2022-12-18T04:43:47;100429.56;;;2.38;64.34
40574;BME280;26283;49.020;8.644;2022-12-18T04:46:13;100431.38;;;2.37;64.33
40574;BME280;26283;49.020;8.644;2022-12-18T04:48:38;100434.88;;;2.38;64.34
40574;BME280;26283;49.020;8.644;2022-12-18T04:51:04;100441.19;;;2.37;64.35
40574;BME280;26283;49.020;8.644;2022-12-18T04:53:30;100434.16;;;2.36;64.36
40574;BME280;26283;49.020;8.644;2022-12-18T04:56:07;100434.16;;;2.36;64.37
40574;BME280;26283;49.020;8.644;2022-12-18T04:58:34;100437.81;;;2.35;64.37
40574;BME280;26283;49.020;8.644;2022-12-18T05:00:59;100432.50;;;2.35;64.36
40574;BME280;26283;49.020;8.644;2022-12-18T05:03:25;100436.13;;;2.34;64.36
40574;BME280;26283;49.020;8.644;2022-12-18T05:05:50;100434.31;;;2.34;64.37
40574;BME280;26283;49.020;8.644;2022-12-18T05:08:17;100429.12;;;2.33;64.36
40574;BME280;26283;49.020;8.644;2022-12-18T05:10:42;100439.75;;;2.33;64.38
40574;BME280;26283;49.020;8.644;2022-12-18T05:13:07;100437.09;;;2.33;64.38
40574;BME280;26283;49.020;8.644;2022-12-18T05:15:33;100434.44;;;2.33;64.38
40574;BME280;26283;49.020;8.644;2022-12-18T05:18:00;100433.59;;;2.32;64.38
40574;BME280;26283;49.020;8.644;2022-12-18T05:20:26;100445.91;;;2.33;64.37
40574;BME280;26283;49.020;8.644;2022-12-18T05:22:52;100445.09;;;2.33;64.39
40574;BME280;26283;49.020;8.644;2022-12-18T05:25:18;100444.37;;;2.31;64.40
40574;BME280;26283;49.020;8.644;2022-12-18T05:27:44;100446.19;;;2.30;64.40
40574;BME280;26283;49.020;8.644;2022-12-18T05:30:10;100452.34;;;2.31;64.38
40574;BME280;26283;49.020;8.644;2022-12-18T05:32:36;100466.63;;;2.30;64.37
40574;BME280;26283;49.020;8.644;2022-12-18T05:35:02;100463.84;;;2.31;64.37
40574;BME280;26283;49.020;8.644;2022-12-18T05:37:28;100467.47;;;2.30;64.36
40574;BME280;26283;49.020;8.644;2022-12-18T05:39:53;100459.62;;;2.29;64.36
40574;BME280;26283;49.020;8.644;2022-12-18T05:42:18;100463.13;;;2.29;64.39
40574;BME280;26283;49.020;8.644;2022-12-18T05:44:44;100460.59;;;2.28;64.38
40574;BME280;26283;49.020;8.644;2022-12-18T05:47:09;100460.59;;;2.28;64.39
40574;BME280;26283;49.020;8.644;2022-12-18T05:49:34;100465.09;;;2.27;64.40
40574;BME280;26283;49.020;8.644;2022-12-18T05:52:01;100464.25;;;2.27;64.41
40574;BME280;26283;49.020;8.644;2022-12-18T05:54:27;100453.59;;;2.27;64.41
40574;BME280;26283;49.020;8.644;2022-12-18T05:56:53;100454.56;;;2.26;64.40
40574;BME280;26283;49.020;8.644;2022-12-18T05:59:19;100450.94;;;2.27;64.38
40574;BME280;26283;49.020;8.644;2022-12-18T06:01:44;100450.09;;;2.26;64.38
40574;BME280;26283;49.020;8.644;2022-12-18T06:04:10;100453.72;;;2.25;64.38
40574;BME280;26283;49.020;8.644;2022-12-18T06:06:35;100456.25;;;2.27;64.38
40574;BME280;26283;49.020;8.644;2022-12-18T06:09:00;100457.22;;;2.26;64.38
40574;BME280;26283;49.020;8.644;2022-12-18T06:11:27;100458.22;;;2.25;64.37
40574;BME280;26283;49.020;8.644;2022-12-18T06:13:54;100460.03;;;2.24;64.37
40574;BME280;26283;49.020;8.644;2022-12-18T06:16:19;100462.69;;;2.24;64.35
40574;BME280;26283;49.020;8.644;2022-12-18T06:18:45;100473.47;;;2.23;64.34
40574;BME280;26283;49.020;8.644;2022-12-18T06:21:11;100482.28;;;2.23;64.37
40574;BME280;26283;49.020;8.644;2022-12-18T06:23:36;100484.09;;;2.23;64.40
40574;BME280;26283;49.020;8.644;2022-12-18T06:26:06;100475.28;;;2.22;64.40
40574;BME280;26283;49.020;8.644;2022-12-18T06:28:32;100478.06;;;2.21;64.40
40574;BME280;26283;49.020;8.644;2022-12-18T06:30:57;100488.72;;;2.21;64.39
40574;BME280;26283;49.020;8.644;2022-12-18T06:33:26;100500.19;;;2.21;64.41
40574;BME280;26283;49.020;8.644;2022-12-18T06:35:52;100502.97;;;2.20;64.40
40574;BME280;26283;49.020;8.644;2022-12-18T06:38:17;100492.34;;;2.20;64.40
40574;BME280;26283;49.020;8.644;2022-12-18T06:40:43;100487.03;;;2.20;64.42
40574;BME280;26283;49.020;8.644;2022-12-18T06:43:08;100498.78;;;2.17;64.42
40574;BME280;26283;49.020;8.644;2022-12-18T06:45:33;100501.31;;;2.19;64.43
40574;BME280;26283;49.020;8.644;2022-12-18T06:47:59;100508.56;;;2.17;64.44
40574;BME280;26283;49.020;8.644;2022-12-18T06:50:24;100513.06;;;2.16;64.43
40574;BME280;26283;49.020;8.644;2022-12-18T06:52:49;100520.03;;;2.17;64.44
40574;BME280;26283;49.020;8.644;2022-12-18T06:55:15;100520.03;;;2.17;64.42
40574;BME280;26283;49.020;8.644;2022-12-18T06:57:40;100529.03;;;2.16;64.41
40574;BME280;26283;49.020;8.644;2022-12-18T07:00:06;100527.19;;;2.17;64.42
40574;BME280;26283;49.020;8.644;2022-12-18T07:02:32;100538.81;;;2.16;64.40
40574;BME280;26283;49.020;8.644;2022-12-18T07:04:58;100526.38;;;2.16;64.42
40574;BME280;26283;49.020;8.644;2022-12-18T07:07:24;100536.16;;;2.16;64.42
40574;BME280;26283;49.020;8.644;2022-12-18T07:09:50;100531.81;;;2.15;64.40
40574;BME280;26283;49.020;8.644;2022-12-18T07:12:16;100527.34;;;2.15;64.40
40574;BME280;26283;49.020;8.644;2022-12-18T07:14:41;100521.19;;;2.15;64.39
40574;BME280;26283;49.020;8.644;2022-12-18T07:17:06;100523.97;;;2.13;64.40
40574;BME280;26283;49.020;8.644;2022-12-18T07:19:32;100524.81;;;2.14;64.42
40574;BME280;26283;49.020;8.644;2022-12-18T07:22:08;100537.16;;;2.15;64.40
40574;BME280;26283;49.020;8.644;2022-12-18T07:24:33;100540.78;;;2.14;64.37
40574;BME280;26283;49.020;8.644;2022-12-18T07:27:00;100537.28;;;2.13;64.38
40574;BME280;26283;49.020;8.644;2022-12-18T07:29:25;100542.59;;;2.13;64.41
40574;BME280;26283;49.020;8.644;2022-12-18T07:31:51;100539.09;;;2.13;64.41
40574;BME280;26283;49.020;8.644;2022-12-18T07:34:16;100542.72;;;2.12;64.43
40574;BME280;26283;49.020;8.644;2022-12-18T07:36:42;100546.34;;;2.11;64.43
40574;BME280;26283;49.020;8.644;2022-12-18T07:39:08;100545.50;;;2.10;64.46
40574;BME280;26283;49.020;8.644;2022-12-18T07:41:33;100550.81;;;2.10;64.47
40574;BME280;26283;49.020;8.644;2022-12-18T07:43:58;100554.34;;;2.11;64.45
40574;BME280;26283;49.020;8.644;2022-12-18T07:46:24;100555.31;;;2.10;64.45
40574;BME280;26283;49.020;8.644;2022-12-18T07:48:49;100555.31;;;2.10;64.45
40574;BME280;26283;49.020;8.644;2022-12-18T07:51:15;100556.16;;;2.10;64.42
40574;BME280;26283;49.020;8.644;2022-12-18T07:53:40;100563.28;;;2.10;64.40
40574;BME280;26283;49.020;8.644;2022-12-18T07:56:08;100569.44;;;2.10;64.39
40574;BME280;26283;49.020;8.644;2022-12-18T07:58:34;100562.44;;;2.09;64.38
40574;BME280;26283;49.020;8.644;2022-12-18T08:01:08;100572.22;;;2.09;64.38
40574;BME280;26283;49.020;8.644;2022-12-18T08:03:33;100571.38;;;2.08;64.36
40574;BME280;26283;49.020;8.644;2022-12-18T08:06:00;100573.22;;;2.08;64.41
40574;BME280;26283;49.020;8.644;2022-12-18T08:08:26;100577.69;;;2.07;64.40
40574;BME280;26283;49.020;8.644;2022-12-18T08:10:51;100576.84;;;2.06;64.42
40574;BME280;26283;49.020;8.644;2022-12-18T08:13:17;100580.47;;;2.05;64.43
40574;BME280;26283;49.020;8.644;2022-12-18T08:15:42;100592.78;;;2.06;64.44
40574;BME280;26283;49.020;8.644;2022-12-18T08:18:08;100583.97;;;2.06;64.45
40574;BME280;26283;49.020;8.644;2022-12-18T08:20:33;100584.09;;;2.04;64.45
40574;BME280;26283;49.020;8.644;2022-12-18T08:22:58;100586.63;;;2.06;64.42
40574;BME280;26283;49.020;8.644;2022-12-18T08:25:24;100580.47;;;2.05;64.43
40574;BME280;26283;49.020;8.644;2022-12-18T08:27:49;100584.94;;;2.05;64.41
40574;BME280;26283;49.020;8.644;2022-12-18T08:30:15;100578.78;;;2.04;64.42
40574;BME280;26283;49.020;8.644;2022-12-18T08:32:40;100577.94;;;2.04;64.43
40574;BME280;26283;49.020;8.644;2022-12-18T08:35:06;100573.47;;;2.04;64.44
40574;BME280;26283;49.020;8.644;2022-12-18T08:37:31;100572.63;;;2.04;64.43
40574;BME280;26283;49.020;8.644;2022-12-18T08:39:56;100576.25;;;2.03;64.44
40574;BME280;26283;49.020;8.644;2022-12-18T08:42:22;100573.59;;;2.03;64.45
40574;BME280;26283;49.020;8.644;2022-12-18T08:45:06;100564.66;;;2.04;64.42
40574;BME280;26283;49.020;8.644;2022-12-18T08:47:32;100559.47;;;2.02;64.41
40574;BME280;26283;49.020;8.644;2022-12-18T08:49:57;100560.31;;;2.03;64.44
40574;BME280;26283;49.020;8.644;2022-12-18T08:52:22;100552.31;;;2.03;64.43
40574;BME280;26283;49.020;8.644;2022-12-18T08:54:48;100549.66;;;2.03;64.44
40574;BME280;26283;49.020;8.644;2022-12-18T08:57:13;100547.97;;;2.02;64.44
40574;BME280;26283;49.020;8.644;2022-12-18T08:59:38;100541.81;;;2.01;64.44
40574;BME280;26283;49.020;8.644;2022-12-18T09:02:04;100539.88;;;2.03;64.45
40574;BME280;26283;49.020;8.644;2022-12-18T09:04:29;100525.88;;;2.01;64.44
40574;BME280;26283;49.020;8.644;2022-12-18T09:06:55;100522.38;;;2.01;64.46
40574;BME280;26283;49.020;8.644;2022-12-18T09:09:20;100529.25;;;2.03;64.46
40574;BME280;26283;49.020;8.644;2022-12-18T09:11:46;100535.41;;;2.04;64.43
40574;BME280;26283;49.020;8.644;2022-12-18T09:14:11;100529.25;;;2.03;64.44
40574;BME280;26283;49.020;8.644;2022-12-18T09:16:37;100532.75;;;2.04;64.43
40574;BME280;26283;49.020;8.644;2022-12-18T09:19:04;100520.28;;;2.04;64.42
40574;BME280;26283;49.020;8.644;2022-12-18T09:21:32;100519.44;;;2.04;64.41
40574;BME280;26283;49.020;8.644;2022-12-18T09:23:58;100508.81;;;2.04;64.41
40574;BME280;26283;49.020;8.644;2022-12-18T09:26:25;100512.44;;;2.03;64.42
40574;BME280;26283;49.020;8.644;2022-12-18T09:28:51;100523.78;;;2.05;64.44
40574;BME280;26283;49.020;8.644;2022-12-18T09:31:18;100521.13;;;2.05;64.45
40574;BME280;26283;49.020;8.644;2022-12-18T09:33:44;100521.13;;;2.05;64.43
40574;BME280;26283;49.020;8.644;2022-12-18T09:36:12;100539.63;;;2.06;64.39
40574;BME280;26283;49.020;8.644;2022-12-18T09:38:38;100543.97;;;2.08;64.39
40574;BME280;26283;49.020;8.644;2022-12-18T09:44:10;100545.91;;;2.05;64.42
40574;BME280;26283;49.020;8.644;2022-12-18T09:46:42;100538.78;;;2.06;64.38
40574;BME280;26283;49.020;8.644;2022-12-18T09:49:13;100551.94;;;2.08;64.37
40574;BME280;26283;49.020;8.644;2022-12-18T09:51:44;100555.56;;;2.06;64.39
40574;BME280;26283;49.020;8.644;2022-12-18T09:54:16;100558.22;;;2.06;64.41
40574;BME280;26283;49.020;8.644;2022-12-18T09:56:43;100576.72;;;2.08;64.44
40574;BME280;26283;49.020;8.644;2022-12-18T09:59:20;100581.19;;;2.08;64.43
40574;BME280;26283;49.020;8.644;2022-12-18T10:01:46;100570.69;;;2.06;64.42
40574;BME280;26283;49.020;8.644;2022-12-18T10:04:11;100566.78;;;2.10;64.43
40574;BME280;26283;49.020;8.644;2022-12-18T10:14:57;100573.78;;;2.11;64.41
40574;BME280;26283;49.020;8.644;2022-12-18T10:20:16;100570.28;;;2.11;64.40
40574;BME280;26283;49.020;8.644;2022-12-18T10:27:44;100577.28;;;2.12;64.41
40574;BME280;26283;49.020;8.644;2022-12-18T10:30:15;100571.84;;;2.13;64.41
40574;BME280;26283;49.020;8.644;2022-12-18T10:32:41;100563.03;;;2.13;64.39
40574;BME280;26283;49.020;8.644;2022-12-18T10:35:21;100559.37;;;2.14;64.41
40574;BME280;26283;49.020;8.644;2022-12-18T10:43:44;100566.41;;;2.15;64.37
40574;BME280;26283;49.020;8.644;2022-12-18T10:56:20;100559.09;;;2.17;64.37
40574;BME280;26283;49.020;8.644;2022-12-18T10:58:55;100545.78;;;2.17;64.37
40574;BME280;26283;49.020;8.644;2022-12-18T11:01:21;100542.16;;;2.18;64.39
40574;BME280;26283;49.020;8.644;2022-12-18T11:06:17;100547.47;;;2.18;64.34
40574;BME280;26283;49.020;8.644;2022-12-18T11:08:56;100546.50;;;2.19;64.35
40574;BME280;26283;49.020;8.644;2022-12-18T11:11:23;100554.50;;;2.19;64.34
40574;BME280;26283;49.020;8.644;2022-12-18T11:16:24;100548.19;;;2.20;64.36
40574;BME280;26283;49.020;8.644;2022-12-18T11:18:50;100551.69;;;2.20;64.36
40574;BME280;26283;49.020;8.644;2022-12-18T11:21:16;100543.84;;;2.19;64.40
40574;BME280;26283;49.020;8.644;2022-12-18T11:23:59;100551.69;;;2.20;64.38
40574;BME280;26283;49.020;8.644;2022-12-18T11:26:34;100557.84;;;2.21;64.37
40574;BME280;26283;49.020;8.644;2022-12-18T11:29:09;100556.03;;;2.21;64.35
40574;BME280;26283;49.020;8.644;2022-12-18T11:31:35;100560.53;;;2.21;64.35
40574;BME280;26283;49.020;8.644;2022-12-18T11:34:19;100542.63;;;2.23;64.36
40574;BME280;26283;49.020;8.644;2022-12-18T11:36:48;100532.94;;;2.22;64.38
40574;BME280;26283;49.020;8.644;2022-12-18T11:47:15;100545.13;;;2.24;64.34
40574;BME280;26283;49.020;8.644;2022-12-18T11:49:47;100546.97;;;2.24;64.34
40574;BME280;26283;49.020;8.644;2022-12-18T11:52:26;100551.31;;;2.25;64.32
40574;BME280;26283;49.020;8.644;2022-12-18T11:55:00;100539.69;;;2.26;64.33
40574;BME280;26283;49.020;8.644;2022-12-18T12:05:30;100525.41;;;2.27;64.37
40574;BME280;26283;49.020;8.644;2022-12-18T12:08:13;100518.16;;;2.29;64.35
40574;BME280;26283;49.020;8.644;2022-12-18T12:16:25;100514.66;;;2.28;64.32
40574;BME280;26283;49.020;8.644;2022-12-18T12:19:00;100510.16;;;2.29;64.35
40574;BME280;26283;49.020;8.644;2022-12-18T12:26:52;100508.34;;;2.29;64.36
40574;BME280;26283;49.020;8.644;2022-12-18T12:32:28;100496.59;;;2.32;64.30
40574;BME280;26283;49.020;8.644;2022-12-18T12:40:14;100511.44;;;2.34;64.30
40574;BME280;26283;49.020;8.644;2022-12-18T12:42:51;100512.28;;;2.35;64.30
40574;BME280;26283;49.020;8.644;2022-12-18T12:46:00;100511.31;;;2.36;64.30
40574;BME280;26283;49.020;8.644;2022-12-18T12:48:47;100512.03;;;2.38;64.27
40574;BME280;26283;49.020;8.644;2022-12-18T12:51:25;100513.84;;;2.37;64.26
40574;BME280;26283;49.020;8.644;2022-12-18T12:53:53;100512.03;;;2.38;64.24
40574;BME280;26283;49.020;8.644;2022-12-18T12:56:20;100515.50;;;2.38;64.21
40574;BME280;26283;49.020;8.644;2022-12-18T13:01:28;100510.03;;;2.40;64.23
40574;BME280;26283;49.020;8.644;2022-12-18T13:04:01;100501.09;;;2.41;64.21
40574;BME280;26283;49.020;8.644;2022-12-18T13:06:52;100505.44;;;2.42;64.19
40574;BME280;26283;49.020;8.644;2022-12-18T13:09:19;100497.44;;;2.42;64.20
40574;BME280;26283;49.020;8.644;2022-12-18T13:11:45;100496.47;;;2.43;64.18
40574;BME280;26283;49.020;8.644;2022-12-18T13:14:36;100485.69;;;2.45;64.20
40574;BME280;26283;49.020;8.644;2022-12-18T13:17:34;100481.22;;;2.45;64.15
40574;BME280;26283;49.020;8.644;2022-12-18T13:22:54;100466.09;;;2.46;64.11
40574;BME280;26283;49.020;8.644;2022-12-18T13:25:37;100477.44;;;2.48;64.11
40574;BME280;26283;49.020;8.644;2022-12-18T13:28:06;100469.47;;;2.48;64.08
40574;BME280;26283;49.020;8.644;2022-12-18T13:36:08;100461.22;;;2.51;64.04
40574;BME280;26283;49.020;8.644;2022-12-18T13:38:36;100454.91;;;2.52;64.04
40574;BME280;26283;49.020;8.644;2022-12-18T13:41:24;100448.75;;;2.51;64.00
40574;BME280;26283;49.020;8.644;2022-12-18T13:43:54;100436.16;;;2.53;64.00
40574;BME280;26283;49.020;8.644;2022-12-18T13:46:24;100434.47;;;2.52;63.99
40574;BME280;26283;49.020;8.644;2022-12-18T13:49:20;100447.63;;;2.54;63.99
40574;BME280;26283;49.020;8.644;2022-12-18T13:51:48;100433.50;;;2.53;63.99
40574;BME280;26283;49.020;8.644;2022-12-18T13:54:36;100445.81;;;2.54;63.95
40574;BME280;26283;49.020;8.644;2022-12-18T13:57:04;100442.19;;;2.55;63.96
40574;BME280;26283;49.020;8.644;2022-12-18T13:59:35;100444.84;;;2.55;63.94
40574;BME280;26283;49.020;8.644;2022-12-18T14:02:12;100445.69;;;2.56;63.95
40574;BME280;26283;49.020;8.644;2022-12-18T14:04:38;100432.25;;;2.57;63.92
40574;BME280;26283;49.020;8.644;2022-12-18T14:07:07;100435.59;;;2.59;63.91
40574;BME280;26283;49.020;8.644;2022-12-18T14:09:39;100435.59;;;2.59;63.91
40574;BME280;26283;49.020;8.644;2022-12-18T14:12:06;100438.25;;;2.59;63.90
40574;BME280;26283;49.020;8.644;2022-12-18T14:14:56;100438.25;;;2.59;63.85
40574;BME280;26283;49.020;8.644;2022-12-18T14:17:22;100446.91;;;2.61;63.84
40574;BME280;26283;49.020;8.644;2022-12-18T14:19:50;100440.75;;;2.61;63.84
40574;BME280;26283;49.020;8.644;2022-12-18T14:22:34;100438.94;;;2.61;63.81
40574;BME280;26283;49.020;8.644;2022-12-18T14:27:38;100435.28;;;2.62;63.77
40574;BME280;26283;49.020;8.644;2022-12-18T14:30:29;100429.00;;;2.63;63.77
40574;BME280;26283;49.020;8.644;2022-12-18T14:33:16;100438.66;;;2.64;63.79
40574;BME280;26283;49.020;8.644;2022-12-18T14:36:02;100431.66;;;2.63;63.77
40574;BME280;26283;49.020;8.644;2022-12-18T14:38:39;100428.84;;;2.65;63.71
40574;BME280;26283;49.020;8.644;2022-12-18T14:41:13;100426.19;;;2.65;63.70
40574;BME280;26283;49.020;8.644;2022-12-18T14:43:44;100435.03;;;2.65;63.67
40574;BME280;26283;49.020;8.644;2022-12-18T14:46:34;100435.03;;;2.65;63.66
40574;BME280;26283;49.020;8.644;2022-12-18T14:49:17;100436.72;;;2.66;63.68
40574;BME280;26283;49.020;8.644;2022-12-18T14:51:55;100436.56;;;2.68;63.67
40574;BME280;26283;49.020;8.644;2022-12-18T14:54:22;100433.06;;;2.67;63.63
40574;BME280;26283;49.020;8.644;2022-12-18T14:57:01;100438.38;;;2.67;63.62
40574;BME280;26283;49.020;8.644;2022-12-18T14:59:28;100434.75;;;2.68;63.64
40574;BME280;26283;49.020;8.644;2022-12-18T15:02:04;100432.78;;;2.70;63.61